sensor_id;sensor_type;location;lat;lon;timestamp;temperature;humidity
18930;DHT22;43305;52.186;5.598;2022-11-15T00:01:43;6.70;99.90
18930;DHT22;43305;52.186;5.598;2022-11-15T00:04:12;6.80;99.90
18930;DHT22;43305;52.186;5.598;2022-11-15T00:07:01;6.80;99.90
18930;DHT22;43305;52.186;5.598;2022-11-15T00:09:28;6.80;99.90
18930;DHT22;43305;52.186;5.598;2022-11-15T00:11:57;6.80;99.90
18930;DHT22;43305;52.186;5.598;2022-11-15T00:14:27;6.80;99.90
18930;DHT22;43305;52.186;5.598;2022-11-15T00:17:00;6.80;99.90
18930;DHT22;43305;52.186;5.598;2022-11-15T00:19:27;6.90;99.90
18930;DHT22;43305;52.186;5.598;2022-11-15T00:21:54;6.80;99.90
18930;DHT22;43305;52.186;5.598;2022-11-15T00:24:27;6.90;99.90
18930;DHT22;43305;52.186;5.598;2022-11-15T00:26:54;6.90;99.90
18930;DHT22;43305;52.186;5.598;2022-11-15T00:29:21;6.90;99.90
18930;DHT22;43305;52.186;5.598;2022-11-15T00:31:49;6.90;99.90
18930;DHT22;43305;52.186;5.598;2022-11-15T00:34:20;6.90;99.90
18930;DHT22;43305;52.186;5.598;2022-11-15T00:36:52;7.00;99.90
18930;DHT22;43305;52.186;5.598;2022-11-15T00:39:20;7.00;99.90
18930;DHT22;43305;52.186;5.598;2022-11-15T00:41:51;7.00;99.90
18930;DHT22;43305;52.186;5.598;2022-11-15T00:44:21;7.10;99.90
18930;DHT22;43305;52.186;5.598;2022-11-15T00:46:50;7.00;99.90
18930;DHT22;43305;52.186;5.598;2022-11-15T00:49:21;7.10;99.90
18930;DHT22;43305;52.186;5.598;2022-11-15T00:51:52;7.10;99.90
18930;DHT22;43305;52.186;5.598;2022-11-15T00:54:19;7.10;99.90
18930;DHT22;43305;52.186;5.598;2022-11-15T00:56:47;7.10;99.90
18930;DHT22;43305;52.186;5.598;2022-11-15T00:59:16;7.10;99.90
18930;DHT22;43305;52.186;5.598;2022-11-15T01:01:50;7.20;99.90
18930;DHT22;43305;52.186;5.598;2022-11-15T01:04:19;7.20;99.90
18930;DHT22;43305;52.186;5.598;2022-11-15T01:06:50;7.20;99.90
18930;DHT22;43305;52.186;5.598;2022-11-15T01:09:16;7.30;99.90
18930;DHT22;43305;52.186;5.598;2022-11-15T01:11:43;7.30;99.90
18930;DHT22;43305;52.186;5.598;2022-11-15T01:14:13;7.30;99.90
18930;DHT22;43305;52.186;5.598;2022-11-15T01:16:49;7.30;99.90
18930;DHT22;43305;52.186;5.598;2022-11-15T01:19:16;7.30;99.90
18930;DHT22;43305;52.186;5.598;2022-11-15T01:21:44;7.40;99.90
18930;DHT22;43305;52.186;5.598;2022-11-15T01:24:14;7.40;99.90
18930;DHT22;43305;52.186;5.598;2022-11-15T01:26:41;7.40;99.90
18930;DHT22;43305;52.186;5.598;2022-11-15T01:29:13;7.40;99.90
18930;DHT22;43305;52.186;5.598;2022-11-15T01:31:40;7.40;99.90
18930;DHT22;43305;52.186;5.598;2022-11-15T01:34:07;7.50;99.90
18930;DHT22;43305;52.186;5.598;2022-11-15T01:36:33;7.50;99.90
18930;DHT22;43305;52.186;5.598;2022-11-15T01:39:10;7.50;99.90
18930;DHT22;43305;52.186;5.598;2022-11-15T01:41:41;7.50;99.90
18930;DHT22;43305;52.186;5.598;2022-11-15T01:47:08;7.50;99.90
18930;DHT22;43305;52.186;5.598;2022-11-15T01:49:39;7.50;99.90
18930;DHT22;43305;52.186;5.598;2022-11-15T01:52:10;7.60;99.90
18930;DHT22;43305;52.186;5.598;2022-11-15T01:54:40;7.60;99.90
18930;DHT22;43305;52.186;5.598;2022-11-15T01:57:17;7.70;99.90
18930;DHT22;43305;52.186;5.598;2022-11-15T01:59:44;7.70;99.90
18930;DHT22;43305;52.186;5.598;2022-11-15T02:02:17;7.70;99.90
18930;DHT22;43305;52.186;5.598;2022-11-15T02:04:47;7.70;99.90
18930;DHT22;43305;52.186;5.598;2022-11-15T02:07:19;7.70;99.90
18930;DHT22;43305;52.186;5.598;2022-11-15T02:09:48;7.80;99.90
18930;DHT22;43305;52.186;5.598;2022-11-15T02:12:18;7.80;99.90
18930;DHT22;43305;52.186;5.598;2022-11-15T02:14:55;7.80;99.90
18930;DHT22;43305;52.186;5.598;2022-11-15T02:17:37;7.90;99.90
18930;DHT22;43305;52.186;5.598;2022-11-15T02:20:39;7.90;99.90
18930;DHT22;43305;52.186;5.598;2022-11-15T02:26:24;7.90;99.90
18930;DHT22;43305;52.186;5.598;2022-11-15T02:29:04;8.00;99.90
18930;DHT22;43305;52.186;5.598;2022-11-15T02:31:47;8.00;99.90
18930;DHT22;43305;52.186;5.598;2022-11-15T02:34:21;8.00;99.90
18930;DHT22;43305;52.186;5.598;2022-11-15T02:37:03;8.10;99.90
18930;DHT22;43305;52.186;5.598;2022-11-15T02:39:37;8.10;99.90
18930;DHT22;43305;52.186;5.598;2022-11-15T02:42:09;8.20;99.90
18930;DHT22;43305;52.186;5.598;2022-11-15T02:44:56;8.20;99.90
18930;DHT22;43305;52.186;5.598;2022-11-15T02:47:34;8.30;99.90
18930;DHT22;43305;52.186;5.598;2022-11-15T02:50:08;8.30;99.90
18930;DHT22;43305;52.186;5.598;2022-11-15T02:52:35;8.30;99.90
18930;DHT22;43305;52.186;5.598;2022-11-15T02:55:29;8.40;99.90
18930;DHT22;43305;52.186;5.598;2022-11-15T02:58:09;8.40;99.90
18930;DHT22;43305;52.186;5.598;2022-11-15T03:00:47;8.50;99.90
18930;DHT22;43305;52.186;5.598;2022-11-15T03:03:30;8.50;99.90
18930;DHT22;43305;52.186;5.598;2022-11-15T03:06:11;8.50;99.90
18930;DHT22;43305;52.186;5.598;2022-11-15T03:08:48;8.60;99.90
18930;DHT22;43305;52.186;5.598;2022-11-15T03:11:22;8.50;99.90
18930;DHT22;43305;52.186;5.598;2022-11-15T03:13:57;8.60;99.90
18930;DHT22;43305;52.186;5.598;2022-11-15T03:16:29;8.60;99.90
18930;DHT22;43305;52.186;5.598;2022-11-15T03:19:03;8.60;99.90
18930;DHT22;43305;52.186;5.598;2022-11-15T03:21:33;8.60;99.90
18930;DHT22;43305;52.186;5.598;2022-11-15T03:24:05;8.60;99.90
18930;DHT22;43305;52.186;5.598;2022-11-15T03:26:33;8.70;99.90
18930;DHT22;43305;52.186;5.598;2022-11-15T03:29:08;8.70;99.90
18930;DHT22;43305;52.186;5.598;2022-11-15T03:31:42;8.70;99.90
18930;DHT22;43305;52.186;5.598;2022-11-15T03:34:30;8.80;99.90
18930;DHT22;43305;52.186;5.598;2022-11-15T03:37:01;8.80;99.90
18930;DHT22;43305;52.186;5.598;2022-11-15T03:39:30;8.90;99.90
18930;DHT22;43305;52.186;5.598;2022-11-15T03:42:04;8.90;99.90
18930;DHT22;43305;52.186;5.598;2022-11-15T03:44:39;8.90;99.90
18930;DHT22;43305;52.186;5.598;2022-11-15T03:47:11;9.00;99.90
18930;DHT22;43305;52.186;5.598;2022-11-15T03:49:44;9.10;99.90
18930;DHT22;43305;52.186;5.598;2022-11-15T03:52:12;9.10;99.90
18930;DHT22;43305;52.186;5.598;2022-11-15T03:54:53;9.20;99.90
18930;DHT22;43305;52.186;5.598;2022-11-15T03:57:20;9.20;99.90
18930;DHT22;43305;52.186;5.598;2022-11-15T03:59:48;9.20;99.90
18930;DHT22;43305;52.186;5.598;2022-11-15T04:02:15;9.30;99.90
18930;DHT22;43305;52.186;5.598;2022-11-15T04:04:44;9.30;99.90
18930;DHT22;43305;52.186;5.598;2022-11-15T04:07:16;9.40;99.90
18930;DHT22;43305;52.186;5.598;2022-11-15T04:09:42;9.40;99.90
18930;DHT22;43305;52.186;5.598;2022-11-15T04:12:23;9.40;99.90
18930;DHT22;43305;52.186;5.598;2022-11-15T04:14:59;9.40;99.90
18930;DHT22;43305;52.186;5.598;2022-11-15T04:17:35;9.50;99.90
18930;DHT22;43305;52.186;5.598;2022-11-15T04:20:04;9.50;99.90
18930;DHT22;43305;52.186;5.598;2022-11-15T04:22:44;9.60;99.90
18930;DHT22;43305;52.186;5.598;2022-11-15T04:25:25;9.60;99.90
18930;DHT22;43305;52.186;5.598;2022-11-15T04:27:52;9.70;99.90
18930;DHT22;43305;52.186;5.598;2022-11-15T04:30:20;9.70;99.90
18930;DHT22;43305;52.186;5.598;2022-11-15T04:32:46;9.70;99.90
18930;DHT22;43305;52.186;5.598;2022-11-15T04:35:14;9.80;99.90
18930;DHT22;43305;52.186;5.598;2022-11-15T04:37:41;9.70;99.90
18930;DHT22;43305;52.186;5.598;2022-11-15T04:40:08;9.80;99.90
18930;DHT22;43305;52.186;5.598;2022-11-15T04:42:35;9.80;99.90
18930;DHT22;43305;52.186;5.598;2022-11-15T04:45:02;9.90;99.90
18930;DHT22;43305;52.186;5.598;2022-11-15T04:47:29;9.90;99.90
18930;DHT22;43305;52.186;5.598;2022-11-15T04:49:56;9.90;99.90
18930;DHT22;43305;52.186;5.598;2022-11-15T04:52:24;9.90;99.90
18930;DHT22;43305;52.186;5.598;2022-11-15T04:54:52;10.00;99.90
18930;DHT22;43305;52.186;5.598;2022-11-15T04:57:19;10.00;99.90
18930;DHT22;43305;52.186;5.598;2022-11-15T04:59:46;10.00;99.90
18930;DHT22;43305;52.186;5.598;2022-11-15T05:02:13;10.00;99.90
18930;DHT22;43305;52.186;5.598;2022-11-15T05:04:40;10.00;99.90
18930;DHT22;43305;52.186;5.598;2022-11-15T05:07:08;10.00;99.90
18930;DHT22;43305;52.186;5.598;2022-11-15T05:09:37;10.00;99.90
18930;DHT22;43305;52.186;5.598;2022-11-15T05:12:04;10.00;99.90
18930;DHT22;43305;52.186;5.598;2022-11-15T05:14:31;10.00;99.90
18930;DHT22;43305;52.186;5.598;2022-11-15T05:16:57;10.00;99.90
18930;DHT22;43305;52.186;5.598;2022-11-15T05:19:24;10.00;99.90
18930;DHT22;43305;52.186;5.598;2022-11-15T05:21:51;10.00;99.90
18930;DHT22;43305;52.186;5.598;2022-11-15T05:24:17;10.00;99.90
18930;DHT22;43305;52.186;5.598;2022-11-15T05:26:46;10.10;99.90
18930;DHT22;43305;52.186;5.598;2022-11-15T05:29:12;10.10;99.90
18930;DHT22;43305;52.186;5.598;2022-11-15T05:31:40;10.10;99.90
18930;DHT22;43305;52.186;5.598;2022-11-15T05:34:07;10.10;99.90
18930;DHT22;43305;52.186;5.598;2022-11-15T05:36:36;10.10;99.90
18930;DHT22;43305;52.186;5.598;2022-11-15T05:39:05;10.10;99.90
18930;DHT22;43305;52.186;5.598;2022-11-15T05:41:37;10.10;99.90
18930;DHT22;43305;52.186;5.598;2022-11-15T05:44:08;10.10;99.90
18930;DHT22;43305;52.186;5.598;2022-11-15T05:46:37;10.10;99.90
18930;DHT22;43305;52.186;5.598;2022-11-15T05:49:06;10.10;99.90
18930;DHT22;43305;52.186;5.598;2022-11-15T05:51:34;10.20;99.90
18930;DHT22;43305;52.186;5.598;2022-11-15T05:54:01;10.20;99.90
18930;DHT22;43305;52.186;5.598;2022-11-15T05:56:29;10.20;99.90
18930;DHT22;43305;52.186;5.598;2022-11-15T05:58:58;10.20;99.90
18930;DHT22;43305;52.186;5.598;2022-11-15T06:01:27;10.30;99.90
18930;DHT22;43305;52.186;5.598;2022-11-15T06:03:54;10.30;99.90
18930;DHT22;43305;52.186;5.598;2022-11-15T06:06:21;10.30;99.90
18930;DHT22;43305;52.186;5.598;2022-11-15T06:08:49;10.30;99.90
18930;DHT22;43305;52.186;5.598;2022-11-15T06:11:15;10.40;99.90
18930;DHT22;43305;52.186;5.598;2022-11-15T06:13:42;10.40;99.90
18930;DHT22;43305;52.186;5.598;2022-11-15T06:16:09;10.40;99.90
18930;DHT22;43305;52.186;5.598;2022-11-15T06:18:38;10.40;99.90
18930;DHT22;43305;52.186;5.598;2022-11-15T06:21:07;10.50;99.90
18930;DHT22;43305;52.186;5.598;2022-11-15T06:23:35;10.50;99.90
18930;DHT22;43305;52.186;5.598;2022-11-15T06:26:03;10.50;99.90
18930;DHT22;43305;52.186;5.598;2022-11-15T06:28:31;10.50;99.90
18930;DHT22;43305;52.186;5.598;2022-11-15T06:31:02;10.50;99.90
18930;DHT22;43305;52.186;5.598;2022-11-15T06:33:29;10.50;99.90
18930;DHT22;43305;52.186;5.598;2022-11-15T06:36:00;10.50;99.90
18930;DHT22;43305;52.186;5.598;2022-11-15T06:38:26;10.50;99.90
18930;DHT22;43305;52.186;5.598;2022-11-15T06:40:53;10.50;99.90
18930;DHT22;43305;52.186;5.598;2022-11-15T06:43:20;10.60;99.90
18930;DHT22;43305;52.186;5.598;2022-11-15T06:45:47;10.60;99.90
18930;DHT22;43305;52.186;5.598;2022-11-15T06:48:14;10.60;99.90
18930;DHT22;43305;52.186;5.598;2022-11-15T06:50:41;10.60;99.90
18930;DHT22;43305;52.186;5.598;2022-11-15T06:53:09;10.60;99.90
18930;DHT22;43305;52.186;5.598;2022-11-15T06:55:35;10.60;99.90
18930;DHT22;43305;52.186;5.598;2022-11-15T06:58:02;10.60;99.90
18930;DHT22;43305;52.186;5.598;2022-11-15T07:00:29;10.60;99.90
18930;DHT22;43305;52.186;5.598;2022-11-15T07:02:59;10.60;99.90
18930;DHT22;43305;52.186;5.598;2022-11-15T07:05:26;10.60;99.90
18930;DHT22;43305;52.186;5.598;2022-11-15T07:07:54;10.60;99.90
18930;DHT22;43305;52.186;5.598;2022-11-15T07:10:27;10.60;99.90
18930;DHT22;43305;52.186;5.598;2022-11-15T07:12:55;10.60;99.90
18930;DHT22;43305;52.186;5.598;2022-11-15T07:15:23;10.60;99.90
18930;DHT22;43305;52.186;5.598;2022-11-15T07:18:07;10.60;99.90
18930;DHT22;43305;52.186;5.598;2022-11-15T07:20:45;10.70;99.90
18930;DHT22;43305;52.186;5.598;2022-11-15T07:23:32;10.60;99.90
18930;DHT22;43305;52.186;5.598;2022-11-15T07:26:24;10.70;99.90
18930;DHT22;43305;52.186;5.598;2022-11-15T07:29:03;10.70;99.90
18930;DHT22;43305;52.186;5.598;2022-11-15T07:31:45;10.70;99.90
18930;DHT22;43305;52.186;5.598;2022-11-15T07:34:39;10.70;99.90
18930;DHT22;43305;52.186;5.598;2022-11-15T07:37:36;10.80;99.90
18930;DHT22;43305;52.186;5.598;2022-11-15T07:40:23;10.80;99.90
18930;DHT22;43305;52.186;5.598;2022-11-15T07:43:20;10.80;99.90
18930;DHT22;43305;52.186;5.598;2022-11-15T07:45:59;10.80;99.90
18930;DHT22;43305;52.186;5.598;2022-11-15T07:48:58;10.80;99.90
18930;DHT22;43305;52.186;5.598;2022-11-15T07:51:35;10.80;99.90
18930;DHT22;43305;52.186;5.598;2022-11-15T07:54:13;10.80;99.90
18930;DHT22;43305;52.186;5.598;2022-11-15T07:57:05;10.80;99.90
18930;DHT22;43305;52.186;5.598;2022-11-15T07:59:55;10.80;99.90
18930;DHT22;43305;52.186;5.598;2022-11-15T08:02:35;10.90;99.90
18930;DHT22;43305;52.186;5.598;2022-11-15T08:05:04;10.90;99.90
18930;DHT22;43305;52.186;5.598;2022-11-15T08:07:50;10.90;99.90
18930;DHT22;43305;52.186;5.598;2022-11-15T08:10:25;10.90;99.90
18930;DHT22;43305;52.186;5.598;2022-11-15T08:13:00;10.90;99.90
18930;DHT22;43305;52.186;5.598;2022-11-15T08:15:32;10.90;99.90
18930;DHT22;43305;52.186;5.598;2022-11-15T08:18:02;10.90;99.90
18930;DHT22;43305;52.186;5.598;2022-11-15T08:20:30;10.90;99.90
18930;DHT22;43305;52.186;5.598;2022-11-15T08:22:59;10.90;99.90
18930;DHT22;43305;52.186;5.598;2022-11-15T08:25:28;10.90;99.90
18930;DHT22;43305;52.186;5.598;2022-11-15T08:27:58;11.00;99.90
18930;DHT22;43305;52.186;5.598;2022-11-15T08:30:26;11.00;99.90
18930;DHT22;43305;52.186;5.598;2022-11-15T08:32:58;10.90;99.90
18930;DHT22;43305;52.186;5.598;2022-11-15T08:35:29;10.90;99.90
18930;DHT22;43305;52.186;5.598;2022-11-15T08:38:03;11.00;99.90
18930;DHT22;43305;52.186;5.598;2022-11-15T08:40:33;11.00;99.90
18930;DHT22;43305;52.186;5.598;2022-11-15T08:43:07;11.00;99.90
18930;DHT22;43305;52.186;5.598;2022-11-15T08:45:35;11.00;99.90
18930;DHT22;43305;52.186;5.598;2022-11-15T08:48:03;11.00;99.90
18930;DHT22;43305;52.186;5.598;2022-11-15T08:50:31;11.10;99.90
18930;DHT22;43305;52.186;5.598;2022-11-15T08:53:05;11.10;99.90
18930;DHT22;43305;52.186;5.598;2022-11-15T08:55:32;11.10;99.90
18930;DHT22;43305;52.186;5.598;2022-11-15T08:58:00;11.20;99.90
18930;DHT22;43305;52.186;5.598;2022-11-15T09:00:29;11.20;99.90
18930;DHT22;43305;52.186;5.598;2022-11-15T09:02:56;11.20;99.90
18930;DHT22;43305;52.186;5.598;2022-11-15T09:05:29;11.30;99.90
18930;DHT22;43305;52.186;5.598;2022-11-15T09:08:00;11.30;99.90
18930;DHT22;43305;52.186;5.598;2022-11-15T09:10:27;11.40;99.90
18930;DHT22;43305;52.186;5.598;2022-11-15T09:12:53;11.40;99.90
18930;DHT22;43305;52.186;5.598;2022-11-15T09:15:20;11.40;99.90
18930;DHT22;43305;52.186;5.598;2022-11-15T09:17:49;11.40;99.90
18930;DHT22;43305;52.186;5.598;2022-11-15T09:20:16;11.40;99.90
18930;DHT22;43305;52.186;5.598;2022-11-15T09:22:48;11.60;99.90
18930;DHT22;43305;52.186;5.598;2022-11-15T09:25:15;12.00;99.90
18930;DHT22;43305;52.186;5.598;2022-11-15T09:28:00;12.20;99.90
18930;DHT22;43305;52.186;5.598;2022-11-15T09:30:29;12.40;99.90
18930;DHT22;43305;52.186;5.598;2022-11-15T09:32:56;12.50;99.90
18930;DHT22;43305;52.186;5.598;2022-11-15T09:35:22;12.40;99.90
18930;DHT22;43305;52.186;5.598;2022-11-15T09:37:53;12.20;99.90
18930;DHT22;43305;52.186;5.598;2022-11-15T09:40:20;12.10;99.90
18930;DHT22;43305;52.186;5.598;2022-11-15T09:43:04;12.00;99.90
18930;DHT22;43305;52.186;5.598;2022-11-15T09:45:34;11.90;99.90
18930;DHT22;43305;52.186;5.598;2022-11-15T09:48:21;11.80;99.90
18930;DHT22;43305;52.186;5.598;2022-11-15T09:50:53;11.80;99.90
18930;DHT22;43305;52.186;5.598;2022-11-15T09:53:31;11.80;99.90
18930;DHT22;43305;52.186;5.598;2022-11-15T09:56:13;11.70;99.90
18930;DHT22;43305;52.186;5.598;2022-11-15T09:58:47;11.70;99.90
18930;DHT22;43305;52.186;5.598;2022-11-15T10:01:22;11.80;99.90
18930;DHT22;43305;52.186;5.598;2022-11-15T10:03:56;11.80;99.90
18930;DHT22;43305;52.186;5.598;2022-11-15T10:09:25;12.10;99.90
18930;DHT22;43305;52.186;5.598;2022-11-15T10:11:53;12.40;99.90
18930;DHT22;43305;52.186;5.598;2022-11-15T10:14:22;12.70;99.90
18930;DHT22;43305;52.186;5.598;2022-11-15T10:17:13;12.80;99.90
18930;DHT22;43305;52.186;5.598;2022-11-15T10:19:50;12.80;99.90
18930;DHT22;43305;52.186;5.598;2022-11-15T10:22:25;12.70;99.90
18930;DHT22;43305;52.186;5.598;2022-11-15T10:25:14;12.60;99.90
18930;DHT22;43305;52.186;5.598;2022-11-15T10:27:47;12.60;99.90
18930;DHT22;43305;52.186;5.598;2022-11-15T10:30:23;12.60;99.90
18930;DHT22;43305;52.186;5.598;2022-11-15T10:32:50;12.60;99.90
18930;DHT22;43305;52.186;5.598;2022-11-15T10:35:23;12.80;99.90
18930;DHT22;43305;52.186;5.598;2022-11-15T10:37:51;12.90;99.90
18930;DHT22;43305;52.186;5.598;2022-11-15T10:40:21;12.80;99.90
18930;DHT22;43305;52.186;5.598;2022-11-15T10:42:48;12.70;99.90
18930;DHT22;43305;52.186;5.598;2022-11-15T10:45:31;12.70;99.90
18930;DHT22;43305;52.186;5.598;2022-11-15T10:48:21;12.70;99.90
18930;DHT22;43305;52.186;5.598;2022-11-15T10:50:50;12.70;99.90
18930;DHT22;43305;52.186;5.598;2022-11-15T10:53:26;12.70;99.90
18930;DHT22;43305;52.186;5.598;2022-11-15T10:55:57;12.80;99.90
18930;DHT22;43305;52.186;5.598;2022-11-15T10:58:33;13.00;99.90
18930;DHT22;43305;52.186;5.598;2022-11-15T11:01:16;13.00;99.90
18930;DHT22;43305;52.186;5.598;2022-11-15T11:03:44;13.00;99.90
18930;DHT22;43305;52.186;5.598;2022-11-15T11:06:13;12.90;99.90
18930;DHT22;43305;52.186;5.598;2022-11-15T11:08:40;13.00;99.90
18930;DHT22;43305;52.186;5.598;2022-11-15T11:11:20;12.90;99.90
18930;DHT22;43305;52.186;5.598;2022-11-15T11:13:48;12.90;99.90
18930;DHT22;43305;52.186;5.598;2022-11-15T11:16:34;12.90;99.90
18930;DHT22;43305;52.186;5.598;2022-11-15T11:19:15;13.00;99.90
18930;DHT22;43305;52.186;5.598;2022-11-15T11:21:52;13.10;99.90
18930;DHT22;43305;52.186;5.598;2022-11-15T11:24:28;13.10;99.90
18930;DHT22;43305;52.186;5.598;2022-11-15T11:27:12;13.10;99.90
18930;DHT22;43305;52.186;5.598;2022-11-15T11:29:50;13.00;99.90
18930;DHT22;43305;52.186;5.598;2022-11-15T11:32:38;13.20;99.90
18930;DHT22;43305;52.186;5.598;2022-11-15T11:35:11;13.20;99.90
18930;DHT22;43305;52.186;5.598;2022-11-15T11:37:46;13.20;99.90
18930;DHT22;43305;52.186;5.598;2022-11-15T11:40:24;13.10;99.90
18930;DHT22;43305;52.186;5.598;2022-11-15T11:43:00;13.20;99.90
18930;DHT22;43305;52.186;5.598;2022-11-15T11:45:49;13.10;99.90
18930;DHT22;43305;52.186;5.598;2022-11-15T11:48:28;13.10;99.90
18930;DHT22;43305;52.186;5.598;2022-11-15T11:51:03;13.10;99.90
18930;DHT22;43305;52.186;5.598;2022-11-15T11:53:37;13.20;99.90
18930;DHT22;43305;52.186;5.598;2022-11-15T11:56:14;13.20;99.90
18930;DHT22;43305;52.186;5.598;2022-11-15T11:58:46;13.10;99.90
18930;DHT22;43305;52.186;5.598;2022-11-15T12:01:20;13.10;99.90
18930;DHT22;43305;52.186;5.598;2022-11-15T12:03:53;13.10;99.90
18930;DHT22;43305;52.186;5.598;2022-11-15T12:06:27;13.00;99.90
18930;DHT22;43305;52.186;5.598;2022-11-15T12:08:59;13.10;99.90
18930;DHT22;43305;52.186;5.598;2022-11-15T12:11:30;13.20;99.90
18930;DHT22;43305;52.186;5.598;2022-11-15T12:14:05;13.30;99.90
18930;DHT22;43305;52.186;5.598;2022-11-15T12:16:37;13.30;99.90
18930;DHT22;43305;52.186;5.598;2022-11-15T12:19:04;13.50;99.90
18930;DHT22;43305;52.186;5.598;2022-11-15T12:21:36;13.50;99.90
18930;DHT22;43305;52.186;5.598;2022-11-15T12:24:11;13.50;99.90
18930;DHT22;43305;52.186;5.598;2022-11-15T12:26:44;13.50;99.90
18930;DHT22;43305;52.186;5.598;2022-11-15T12:29:18;13.50;99.90
18930;DHT22;43305;52.186;5.598;2022-11-15T12:31:50;13.60;99.90
18930;DHT22;43305;52.186;5.598;2022-11-15T12:34:41;13.60;99.90
18930;DHT22;43305;52.186;5.598;2022-11-15T12:40:19;13.50;99.90
18930;DHT22;43305;52.186;5.598;2022-11-15T12:43:03;13.40;99.90
18930;DHT22;43305;52.186;5.598;2022-11-15T12:45:34;13.30;99.90
18930;DHT22;43305;52.186;5.598;2022-11-15T12:50:59;13.40;99.90
18930;DHT22;43305;52.186;5.598;2022-11-15T12:53:27;13.60;99.90
18930;DHT22;43305;52.186;5.598;2022-11-15T12:56:24;13.70;99.90
18930;DHT22;43305;52.186;5.598;2022-11-15T12:58:54;13.70;99.90
18930;DHT22;43305;52.186;5.598;2022-11-15T13:04:34;13.90;99.90
18930;DHT22;43305;52.186;5.598;2022-11-15T13:07:02;13.90;99.90
18930;DHT22;43305;52.186;5.598;2022-11-15T13:09:50;13.80;99.90
18930;DHT22;43305;52.186;5.598;2022-11-15T13:15:33;13.90;99.90
18930;DHT22;43305;52.186;5.598;2022-11-15T13:18:26;14.00;99.90
18930;DHT22;43305;52.186;5.598;2022-11-15T13:20:55;14.20;99.90
18930;DHT22;43305;52.186;5.598;2022-11-15T13:23:22;14.00;99.90
18930;DHT22;43305;52.186;5.598;2022-11-15T13:26:03;13.80;99.90
18930;DHT22;43305;52.186;5.598;2022-11-15T13:28:33;13.70;99.90
18930;DHT22;43305;52.186;5.598;2022-11-15T13:31:18;13.50;99.90
18930;DHT22;43305;52.186;5.598;2022-11-15T13:33:46;13.40;99.90
18930;DHT22;43305;52.186;5.598;2022-11-15T13:36:18;13.40;99.90
18930;DHT22;43305;52.186;5.598;2022-11-15T13:38:54;13.30;99.90
18930;DHT22;43305;52.186;5.598;2022-11-15T13:41:23;13.20;99.90
18930;DHT22;43305;52.186;5.598;2022-11-15T13:43:52;13.10;99.90
18930;DHT22;43305;52.186;5.598;2022-11-15T13:46:21;13.00;99.90
18930;DHT22;43305;52.186;5.598;2022-11-15T13:48:52;12.90;99.90
18930;DHT22;43305;52.186;5.598;2022-11-15T13:51:24;12.90;99.90
18930;DHT22;43305;52.186;5.598;2022-11-15T13:53:54;12.80;99.90
18930;DHT22;43305;52.186;5.598;2022-11-15T13:56:23;12.80;99.90
18930;DHT22;43305;52.186;5.598;2022-11-15T13:58:51;12.70;99.90
18930;DHT22;43305;52.186;5.598;2022-11-15T14:01:21;12.60;99.90
18930;DHT22;43305;52.186;5.598;2022-11-15T14:03:53;12.50;99.90
18930;DHT22;43305;52.186;5.598;2022-11-15T14:06:23;12.50;99.90
18930;DHT22;43305;52.186;5.598;2022-11-15T14:09:02;12.50;99.90
18930;DHT22;43305;52.186;5.598;2022-11-15T14:11:29;12.40;99.90
18930;DHT22;43305;52.186;5.598;2022-11-15T14:14:04;12.40;99.90
18930;DHT22;43305;52.186;5.598;2022-11-15T14:16:39;12.40;99.90
18930;DHT22;43305;52.186;5.598;2022-11-15T14:19:10;12.30;99.90
18930;DHT22;43305;52.186;5.598;2022-11-15T14:24:41;12.30;99.90
18930;DHT22;43305;52.186;5.598;2022-11-15T14:27:19;12.20;99.90
18930;DHT22;43305;52.186;5.598;2022-11-15T14:29:46;12.20;99.90
18930;DHT22;43305;52.186;5.598;2022-11-15T14:32:16;12.10;99.90
18930;DHT22;43305;52.186;5.598;2022-11-15T14:34:44;12.20;99.90
18930;DHT22;43305;52.186;5.598;2022-11-15T14:37:20;12.10;99.90
18930;DHT22;43305;52.186;5.598;2022-11-15T14:39:47;12.10;99.90
18930;DHT22;43305;52.186;5.598;2022-11-15T14:42:14;12.10;99.90
18930;DHT22;43305;52.186;5.598;2022-11-15T14:44:41;12.00;99.90
18930;DHT22;43305;52.186;5.598;2022-11-15T14:47:08;12.10;99.90
18930;DHT22;43305;52.186;5.598;2022-11-15T14:49:35;12.00;99.90
18930;DHT22;43305;52.186;5.598;2022-11-15T14:52:02;12.00;99.90
18930;DHT22;43305;52.186;5.598;2022-11-15T14:54:30;11.90;99.90
18930;DHT22;43305;52.186;5.598;2022-11-15T14:56:57;12.00;99.90
18930;DHT22;43305;52.186;5.598;2022-11-15T14:59:24;12.00;99.90
18930;DHT22;43305;52.186;5.598;2022-11-15T15:01:50;11.90;99.90
18930;DHT22;43305;52.186;5.598;2022-11-15T15:04:17;11.90;99.90
18930;DHT22;43305;52.186;5.598;2022-11-15T15:06:44;12.00;99.90
18930;DHT22;43305;52.186;5.598;2022-11-15T15:09:11;12.00;99.90
18930;DHT22;43305;52.186;5.598;2022-11-15T15:11:39;11.90;99.90
18930;DHT22;43305;52.186;5.598;2022-11-15T15:14:07;11.90;99.90
18930;DHT22;43305;52.186;5.598;2022-11-15T15:16:34;12.00;99.90
18930;DHT22;43305;52.186;5.598;2022-11-15T15:19:01;11.90;99.90
18930;DHT22;43305;52.186;5.598;2022-11-15T15:21:28;11.90;99.90
18930;DHT22;43305;52.186;5.598;2022-11-15T15:23:56;11.90;99.90
18930;DHT22;43305;52.186;5.598;2022-11-15T15:26:25;12.00;99.90
18930;DHT22;43305;52.186;5.598;2022-11-15T15:28:53;11.90;99.90
18930;DHT22;43305;52.186;5.598;2022-11-15T15:31:23;11.90;99.90
18930;DHT22;43305;52.186;5.598;2022-11-15T15:33:49;12.00;99.90
18930;DHT22;43305;52.186;5.598;2022-11-15T15:36:18;12.00;99.90
18930;DHT22;43305;52.186;5.598;2022-11-15T15:38:45;11.90;99.90
18930;DHT22;43305;52.186;5.598;2022-11-15T15:41:13;12.00;99.90
18930;DHT22;43305;52.186;5.598;2022-11-15T15:43:40;12.00;99.90
18930;DHT22;43305;52.186;5.598;2022-11-15T15:46:10;11.90;99.90
18930;DHT22;43305;52.186;5.598;2022-11-15T15:48:38;11.90;99.90
18930;DHT22;43305;52.186;5.598;2022-11-15T15:51:08;11.90;99.90
18930;DHT22;43305;52.186;5.598;2022-11-15T15:53:35;11.80;99.90
18930;DHT22;43305;52.186;5.598;2022-11-15T15:56:02;11.90;99.90
18930;DHT22;43305;52.186;5.598;2022-11-15T15:58:32;11.80;99.90
18930;DHT22;43305;52.186;5.598;2022-11-15T16:00:59;11.90;99.90
18930;DHT22;43305;52.186;5.598;2022-11-15T16:03:30;11.80;99.90
18930;DHT22;43305;52.186;5.598;2022-11-15T16:05:59;11.80;99.90
18930;DHT22;43305;52.186;5.598;2022-11-15T16:08:29;11.80;99.90
18930;DHT22;43305;52.186;5.598;2022-11-15T16:10:56;11.80;99.90
18930;DHT22;43305;52.186;5.598;2022-11-15T16:13:26;11.90;99.90
18930;DHT22;43305;52.186;5.598;2022-11-15T16:16:02;11.90;99.90
18930;DHT22;43305;52.186;5.598;2022-11-15T16:18:30;11.90;99.90
18930;DHT22;43305;52.186;5.598;2022-11-15T16:21:01;11.90;99.90
18930;DHT22;43305;52.186;5.598;2022-11-15T16:23:28;12.00;99.90
18930;DHT22;43305;52.186;5.598;2022-11-15T16:25:55;11.90;99.90
18930;DHT22;43305;52.186;5.598;2022-11-15T16:28:26;11.90;99.90
18930;DHT22;43305;52.186;5.598;2022-11-15T16:31:00;11.90;99.90